sensor_id;sensor_type;location;lat;lon;timestamp;P1;durP1;ratioP1;P2;durP2;ratioP2
55170;SDS011;41060;47.510;8.680;2024-03-02T00:00:49;11.55;;;5.50;;
55170;SDS011;41060;47.510;8.680;2024-03-02T00:03:32;14.82;;;6.10;;
55170;SDS011;41060;47.510;8.680;2024-03-02T00:06:13;9.38;;;5.55;;
55170;SDS011;41060;47.510;8.680;2024-03-02T00:08:56;9.20;;;4.75;;
55170;SDS011;41060;47.510;8.680;2024-03-02T00:11:39;11.43;;;5.03;;
55170;SDS011;41060;47.510;8.680;2024-03-02T00:14:22;12.05;;;5.07;;
55170;SDS011;41060;47.510;8.680;2024-03-02T00:19:49;12.05;;;5.28;;
55170;SDS011;41060;47.510;8.680;2024-03-02T00:22:31;8.27;;;4.88;;
55170;SDS011;41060;47.510;8.680;2024-03-02T00:25:12;12.55;;;5.90;;
55170;SDS011;41060;47.510;8.680;2024-03-02T00:27:54;12.95;;;5.13;;
55170;SDS011;41060;47.510;8.680;2024-03-02T00:30:43;11.88;;;5.25;;
55170;SDS011;41060;47.510;8.680;2024-03-02T00:33:33;11.20;;;5.90;;
55170;SDS011;41060;47.510;8.680;2024-03-02T00:36:16;12.68;;;6.22;;
55170;SDS011;41060;47.510;8.680;2024-03-02T00:39:05;12.57;;;6.28;;
55170;SDS011;41060;47.510;8.680;2024-03-02T00:41:47;11.30;;;6.40;;
55170;SDS011;41060;47.510;8.680;2024-03-02T00:44:29;12.82;;;5.80;;
55170;SDS011;41060;47.510;8.680;2024-03-02T00:47:17;14.25;;;5.97;;
55170;SDS011;41060;47.510;8.680;2024-03-02T00:49:59;11.52;;;6.22;;
55170;SDS011;41060;47.510;8.680;2024-03-02T00:52:40;15.65;;;6.07;;
55170;SDS011;41060;47.510;8.680;2024-03-02T00:55:22;14.15;;;5.82;;
55170;SDS011;41060;47.510;8.680;2024-03-02T00:58:04;13.88;;;5.68;;
55170;SDS011;41060;47.510;8.680;2024-03-02T01:00:45;15.95;;;6.50;;
55170;SDS011;41060;47.510;8.680;2024-03-02T01:03:28;15.32;;;6.95;;
55170;SDS011;41060;47.510;8.680;2024-03-02T01:06:10;15.07;;;7.25;;
55170;SDS011;41060;47.510;8.680;2024-03-02T01:08:51;16.67;;;6.50;;
55170;SDS011;41060;47.510;8.680;2024-03-02T01:11:33;16.98;;;7.30;;
55170;SDS011;41060;47.510;8.680;2024-03-02T01:14:14;13.48;;;5.95;;
55170;SDS011;41060;47.510;8.680;2024-03-02T01:16:56;18.13;;;7.00;;
55170;SDS011;41060;47.510;8.680;2024-03-02T01:19:39;14.38;;;5.43;;
55170;SDS011;41060;47.510;8.680;2024-03-02T01:22:22;15.30;;;6.32;;
55170;SDS011;41060;47.510;8.680;2024-03-02T01:25:05;17.02;;;5.82;;
55170;SDS011;41060;47.510;8.680;2024-03-02T01:27:49;14.45;;;5.45;;
55170;SDS011;41060;47.510;8.680;2024-03-02T01:30:30;15.13;;;6.28;;
55170;SDS011;41060;47.510;8.680;2024-03-02T01:33:12;12.10;;;5.75;;
55170;SDS011;41060;47.510;8.680;2024-03-02T01:35:55;14.18;;;5.72;;
55170;SDS011;41060;47.510;8.680;2024-03-02T01:38:37;14.10;;;6.13;;
55170;SDS011;41060;47.510;8.680;2024-03-02T01:41:21;12.38;;;6.85;;
55170;SDS011;41060;47.510;8.680;2024-03-02T01:44:03;14.77;;;6.28;;
55170;SDS011;41060;47.510;8.680;2024-03-02T01:46:45;22.48;;;7.55;;
55170;SDS011;41060;47.510;8.680;2024-03-02T01:49:27;18.45;;;7.40;;
55170;SDS011;41060;47.510;8.680;2024-03-02T01:52:10;16.10;;;7.65;;
55170;SDS011;41060;47.510;8.680;2024-03-02T01:54:51;13.18;;;6.90;;
55170;SDS011;41060;47.510;8.680;2024-03-02T01:57:33;9.73;;;5.95;;
55170;SDS011;41060;47.510;8.680;2024-03-02T02:00:15;13.23;;;6.32;;
55170;SDS011;41060;47.510;8.680;2024-03-02T02:02:57;11.73;;;5.50;;
55170;SDS011;41060;47.510;8.680;2024-03-02T02:05:44;17.30;;;7.97;;
55170;SDS011;41060;47.510;8.680;2024-03-02T02:08:28;16.30;;;6.88;;
55170;SDS011;41060;47.510;8.680;2024-03-02T02:11:10;13.15;;;6.60;;
55170;SDS011;41060;47.510;8.680;2024-03-02T02:13:51;13.80;;;6.50;;
55170;SDS011;41060;47.510;8.680;2024-03-02T02:16:35;12.93;;;5.63;;
55170;SDS011;41060;47.510;8.680;2024-03-02T02:19:17;12.18;;;5.95;;
55170;SDS011;41060;47.510;8.680;2024-03-02T02:22:00;11.70;;;5.35;;
55170;SDS011;41060;47.510;8.680;2024-03-02T02:24:41;13.15;;;6.80;;
55170;SDS011;41060;47.510;8.680;2024-03-02T02:27:23;13.60;;;6.30;;
55170;SDS011;41060;47.510;8.680;2024-03-02T02:30:05;13.20;;;5.82;;
55170;SDS011;41060;47.510;8.680;2024-03-02T02:32:48;9.13;;;5.43;;
55170;SDS011;41060;47.510;8.680;2024-03-02T02:35:30;9.60;;;5.13;;
55170;SDS011;41060;47.510;8.680;2024-03-02T02:38:15;11.65;;;5.38;;
55170;SDS011;41060;47.510;8.680;2024-03-02T02:41:00;9.05;;;4.88;;
55170;SDS011;41060;47.510;8.680;2024-03-02T02:43:46;8.48;;;4.65;;
55170;SDS011;41060;47.510;8.680;2024-03-02T02:46:31;10.35;;;5.57;;
55170;SDS011;41060;47.510;8.680;2024-03-02T02:49:17;11.95;;;5.35;;
55170;SDS011;41060;47.510;8.680;2024-03-02T02:52:02;14.88;;;6.00;;
55170;SDS011;41060;47.510;8.680;2024-03-02T02:54:49;11.27;;;5.35;;
55170;SDS011;41060;47.510;8.680;2024-03-02T02:57:35;14.32;;;5.45;;
55170;SDS011;41060;47.510;8.680;2024-03-02T03:00:22;9.50;;;4.50;;
55170;SDS011;41060;47.510;8.680;2024-03-02T03:03:07;9.02;;;4.05;;
55170;SDS011;41060;47.510;8.680;2024-03-02T03:05:53;11.60;;;5.00;;
55170;SDS011;41060;47.510;8.680;2024-03-02T03:08:38;7.80;;;4.85;;
55170;SDS011;41060;47.510;8.680;2024-03-02T03:11:25;6.85;;;4.38;;
55170;SDS011;41060;47.510;8.680;2024-03-02T03:14:10;8.35;;;4.32;;
55170;SDS011;41060;47.510;8.680;2024-03-02T03:16:55;10.18;;;4.45;;
55170;SDS011;41060;47.510;8.680;2024-03-02T03:19:41;8.85;;;4.47;;
55170;SDS011;41060;47.510;8.680;2024-03-02T03:22:26;11.05;;;5.20;;
55170;SDS011;41060;47.510;8.680;2024-03-02T03:25:12;8.73;;;4.50;;
55170;SDS011;41060;47.510;8.680;2024-03-02T03:27:59;8.23;;;4.05;;
55170;SDS011;41060;47.510;8.680;2024-03-02T03:30:46;8.35;;;4.65;;
55170;SDS011;41060;47.510;8.680;2024-03-02T03:33:31;7.53;;;4.70;;
55170;SDS011;41060;47.510;8.680;2024-03-02T03:36:16;8.65;;;4.22;;
55170;SDS011;41060;47.510;8.680;2024-03-02T03:39:02;11.15;;;4.93;;
55170;SDS011;41060;47.510;8.680;2024-03-02T03:41:48;9.85;;;5.13;;
55170;SDS011;41060;47.510;8.680;2024-03-02T03:44:35;16.83;;;5.07;;
55170;SDS011;41060;47.510;8.680;2024-03-02T03:47:21;10.15;;;4.88;;
55170;SDS011;41060;47.510;8.680;2024-03-02T03:50:06;9.05;;;5.25;;
55170;SDS011;41060;47.510;8.680;2024-03-02T03:52:52;12.27;;;6.32;;
55170;SDS011;41060;47.510;8.680;2024-03-02T03:55:37;9.60;;;5.03;;
55170;SDS011;41060;47.510;8.680;2024-03-02T03:58:23;11.70;;;5.30;;
55170;SDS011;41060;47.510;8.680;2024-03-02T04:01:10;11.73;;;5.40;;
55170;SDS011;41060;47.510;8.680;2024-03-02T04:03:55;13.02;;;5.50;;
55170;SDS011;41060;47.510;8.680;2024-03-02T04:06:41;9.05;;;6.28;;
55170;SDS011;41060;47.510;8.680;2024-03-02T04:09:26;12.27;;;5.95;;
55170;SDS011;41060;47.510;8.680;2024-03-02T04:12:12;8.18;;;5.05;;
55170;SDS011;41060;47.510;8.680;2024-03-02T04:14:58;10.13;;;5.55;;
55170;SDS011;41060;47.510;8.680;2024-03-02T04:17:44;12.48;;;6.07;;
55170;SDS011;41060;47.510;8.680;2024-03-02T04:20:30;7.90;;;4.15;;
55170;SDS011;41060;47.510;8.680;2024-03-02T04:23:15;10.07;;;5.68;;
55170;SDS011;41060;47.510;8.680;2024-03-02T04:26:00;18.08;;;5.80;;
55170;SDS011;41060;47.510;8.680;2024-03-02T04:28:46;11.52;;;5.93;;
55170;SDS011;41060;47.510;8.680;2024-03-02T04:31:31;11.55;;;6.10;;
55170;SDS011;41060;47.510;8.680;2024-03-02T04:34:18;11.32;;;5.68;;
55170;SDS011;41060;47.510;8.680;2024-03-02T04:37:04;10.93;;;5.50;;
55170;SDS011;41060;47.510;8.680;2024-03-02T04:39:49;16.90;;;5.60;;
55170;SDS011;41060;47.510;8.680;2024-03-02T04:42:34;15.05;;;5.20;;
55170;SDS011;41060;47.510;8.680;2024-03-02T04:45:20;18.42;;;4.95;;
55170;SDS011;41060;47.510;8.680;2024-03-02T04:48:06;12.32;;;4.70;;
55170;SDS011;41060;47.510;8.680;2024-03-02T04:50:53;17.30;;;4.68;;
55170;SDS011;41060;47.510;8.680;2024-03-02T04:53:38;7.13;;;4.78;;
55170;SDS011;41060;47.510;8.680;2024-03-02T04:56:24;8.68;;;4.45;;
55170;SDS011;41060;47.510;8.680;2024-03-02T04:59:24;7.20;;;3.65;;
55170;SDS011;41060;47.510;8.680;2024-03-02T05:02:10;20.83;;;4.57;;
55170;SDS011;41060;47.510;8.680;2024-03-02T05:04:57;24.95;;;4.38;;
55170;SDS011;41060;47.510;8.680;2024-03-02T05:07:44;10.02;;;4.05;;
55170;SDS011;41060;47.510;8.680;2024-03-02T05:10:29;6.90;;;3.53;;
55170;SDS011;41060;47.510;8.680;2024-03-02T05:13:14;8.48;;;4.40;;
55170;SDS011;41060;47.510;8.680;2024-03-02T05:16:03;13.00;;;4.07;;
55170;SDS011;41060;47.510;8.680;2024-03-02T05:18:48;11.50;;;4.13;;
55170;SDS011;41060;47.510;8.680;2024-03-02T05:21:34;28.48;;;4.47;;
55170;SDS011;41060;47.510;8.680;2024-03-02T05:24:20;20.70;;;3.70;;
55170;SDS011;41060;47.510;8.680;2024-03-02T05:27:06;20.00;;;3.33;;
55170;SDS011;41060;47.510;8.680;2024-03-02T05:29:51;23.00;;;3.53;;
55170;SDS011;41060;47.510;8.680;2024-03-02T05:32:37;9.63;;;3.72;;
55170;SDS011;41060;47.510;8.680;2024-03-02T05:35:22;9.27;;;3.88;;
55170;SDS011;41060;47.510;8.680;2024-03-02T05:38:08;12.38;;;3.83;;
55170;SDS011;41060;47.510;8.680;2024-03-02T05:40:57;6.00;;;3.50;;
55170;SDS011;41060;47.510;8.680;2024-03-02T05:43:43;24.85;;;4.15;;
55170;SDS011;41060;47.510;8.680;2024-03-02T05:46:28;8.82;;;3.13;;
55170;SDS011;41060;47.510;8.680;2024-03-02T05:49:13;19.60;;;4.10;;
55170;SDS011;41060;47.510;8.680;2024-03-02T05:51:59;8.90;;;4.47;;
55170;SDS011;41060;47.510;8.680;2024-03-02T05:54:44;7.28;;;4.30;;
55170;SDS011;41060;47.510;8.680;2024-03-02T05:57:31;8.50;;;3.65;;
55170;SDS011;41060;47.510;8.680;2024-03-02T06:00:29;10.85;;;4.25;;
55170;SDS011;41060;47.510;8.680;2024-03-02T06:03:15;6.40;;;3.33;;
55170;SDS011;41060;47.510;8.680;2024-03-02T06:06:00;9.27;;;4.53;;
55170;SDS011;41060;47.510;8.680;2024-03-02T06:08:46;7.22;;;3.30;;
55170;SDS011;41060;47.510;8.680;2024-03-02T06:11:31;7.43;;;4.25;;
55170;SDS011;41060;47.510;8.680;2024-03-02T06:14:18;13.40;;;4.45;;
55170;SDS011;41060;47.510;8.680;2024-03-02T06:17:03;7.90;;;3.65;;
55170;SDS011;41060;47.510;8.680;2024-03-02T06:19:49;8.15;;;3.70;;
55170;SDS011;41060;47.510;8.680;2024-03-02T06:22:34;4.72;;;3.00;;
55170;SDS011;41060;47.510;8.680;2024-03-02T06:25:20;9.90;;;3.05;;
55170;SDS011;41060;47.510;8.680;2024-03-02T06:28:05;24.92;;;3.97;;
55170;SDS011;41060;47.510;8.680;2024-03-02T06:30:52;6.28;;;3.10;;
55170;SDS011;41060;47.510;8.680;2024-03-02T06:33:37;25.67;;;3.30;;
55170;SDS011;41060;47.510;8.680;2024-03-02T06:36:23;7.18;;;2.95;;
55170;SDS011;41060;47.510;8.680;2024-03-02T06:39:09;5.88;;;3.17;;
55170;SDS011;41060;47.510;8.680;2024-03-02T06:41:56;23.63;;;3.65;;
55170;SDS011;41060;47.510;8.680;2024-03-02T06:44:41;4.03;;;2.83;;
55170;SDS011;41060;47.510;8.680;2024-03-02T06:47:28;15.43;;;3.08;;
55170;SDS011;41060;47.510;8.680;2024-03-02T06:50:13;8.15;;;2.28;;
55170;SDS011;41060;47.510;8.680;2024-03-02T06:53:01;5.20;;;2.83;;
55170;SDS011;41060;47.510;8.680;2024-03-02T06:55:47;4.85;;;2.65;;
55170;SDS011;41060;47.510;8.680;2024-03-02T06:58:33;17.17;;;3.22;;
55170;SDS011;41060;47.510;8.680;2024-03-02T07:01:18;4.70;;;2.65;;
55170;SDS011;41060;47.510;8.680;2024-03-02T07:04:05;4.00;;;2.55;;
55170;SDS011;41060;47.510;8.680;2024-03-02T07:06:51;9.63;;;2.80;;
55170;SDS011;41060;47.510;8.680;2024-03-02T07:09:36;24.33;;;3.67;;
55170;SDS011;41060;47.510;8.680;2024-03-02T07:12:22;5.97;;;2.30;;
55170;SDS011;41060;47.510;8.680;2024-03-02T07:15:08;3.92;;;2.53;;
55170;SDS011;41060;47.510;8.680;2024-03-02T07:18:08;6.25;;;2.95;;
55170;SDS011;41060;47.510;8.680;2024-03-02T07:20:37;6.70;;;3.08;;
55170;SDS011;41060;47.510;8.680;2024-03-02T07:23:04;8.77;;;2.75;;
55170;SDS011;41060;47.510;8.680;2024-03-02T07:25:31;7.03;;;3.15;;
55170;SDS011;41060;47.510;8.680;2024-03-02T07:27:58;7.57;;;2.75;;
55170;SDS011;41060;47.510;8.680;2024-03-02T07:30:25;4.15;;;2.33;;
55170;SDS011;41060;47.510;8.680;2024-03-02T07:32:51;6.57;;;2.78;;
55170;SDS011;41060;47.510;8.680;2024-03-02T07:35:18;7.93;;;3.00;;
55170;SDS011;41060;47.510;8.680;2024-03-02T07:37:48;6.95;;;2.90;;
55170;SDS011;41060;47.510;8.680;2024-03-02T07:40:15;4.63;;;2.80;;
55170;SDS011;41060;47.510;8.680;2024-03-02T07:42:44;4.60;;;2.63;;
55170;SDS011;41060;47.510;8.680;2024-03-02T07:45:11;5.45;;;2.95;;
55170;SDS011;41060;47.510;8.680;2024-03-02T07:47:38;9.30;;;2.95;;
55170;SDS011;41060;47.510;8.680;2024-03-02T07:50:05;4.35;;;2.95;;
55170;SDS011;41060;47.510;8.680;2024-03-02T07:52:32;5.07;;;2.60;;
55170;SDS011;41060;47.510;8.680;2024-03-02T07:55:00;4.38;;;2.67;;
55170;SDS011;41060;47.510;8.680;2024-03-02T07:57:28;5.15;;;2.95;;
55170;SDS011;41060;47.510;8.680;2024-03-02T07:59:54;5.65;;;3.00;;
55170;SDS011;41060;47.510;8.680;2024-03-02T08:02:21;10.60;;;2.75;;
55170;SDS011;41060;47.510;8.680;2024-03-02T08:04:48;6.15;;;2.28;;
55170;SDS011;41060;47.510;8.680;2024-03-02T08:07:15;3.28;;;2.53;;
55170;SDS011;41060;47.510;8.680;2024-03-02T08:09:42;4.38;;;2.95;;
55170;SDS011;41060;47.510;8.680;2024-03-02T08:12:10;6.90;;;3.13;;
55170;SDS011;41060;47.510;8.680;2024-03-02T08:14:37;5.00;;;2.78;;
55170;SDS011;41060;47.510;8.680;2024-03-02T08:17:04;5.60;;;2.53;;
55170;SDS011;41060;47.510;8.680;2024-03-02T08:19:35;7.20;;;3.08;;
55170;SDS011;41060;47.510;8.680;2024-03-02T08:22:03;5.57;;;3.35;;
55170;SDS011;41060;47.510;8.680;2024-03-02T08:24:29;5.03;;;2.95;;
55170;SDS011;41060;47.510;8.680;2024-03-02T08:26:57;5.50;;;3.05;;
55170;SDS011;41060;47.510;8.680;2024-03-02T08:29:25;5.88;;;2.47;;
55170;SDS011;41060;47.510;8.680;2024-03-02T08:31:52;5.50;;;3.17;;
55170;SDS011;41060;47.510;8.680;2024-03-02T08:34:19;4.35;;;2.67;;
55170;SDS011;41060;47.510;8.680;2024-03-02T08:36:46;6.07;;;3.17;;
55170;SDS011;41060;47.510;8.680;2024-03-02T08:39:13;6.03;;;3.17;;
55170;SDS011;41060;47.510;8.680;2024-03-02T08:41:41;4.53;;;2.63;;
55170;SDS011;41060;47.510;8.680;2024-03-02T08:44:08;6.22;;;3.10;;
55170;SDS011;41060;47.510;8.680;2024-03-02T08:46:36;7.80;;;3.15;;
55170;SDS011;41060;47.510;8.680;2024-03-02T08:49:04;4.55;;;2.83;;
55170;SDS011;41060;47.510;8.680;2024-03-02T08:51:31;4.70;;;3.05;;
55170;SDS011;41060;47.510;8.680;2024-03-02T08:53:58;5.32;;;3.20;;
55170;SDS011;41060;47.510;8.680;2024-03-02T08:56:26;6.80;;;3.70;;
55170;SDS011;41060;47.510;8.680;2024-03-02T08:58:52;8.60;;;3.55;;
55170;SDS011;41060;47.510;8.680;2024-03-02T09:01:19;7.43;;;3.50;;
55170;SDS011;41060;47.510;8.680;2024-03-02T09:03:48;6.53;;;3.78;;
55170;SDS011;41060;47.510;8.680;2024-03-02T09:06:17;13.82;;;3.92;;
55170;SDS011;41060;47.510;8.680;2024-03-02T09:08:47;8.07;;;4.20;;
55170;SDS011;41060;47.510;8.680;2024-03-02T09:11:15;6.95;;;3.47;;
55170;SDS011;41060;47.510;8.680;2024-03-02T09:13:41;3.72;;;2.58;;
55170;SDS011;41060;47.510;8.680;2024-03-02T09:16:10;4.95;;;2.80;;
55170;SDS011;41060;47.510;8.680;2024-03-02T09:18:37;5.72;;;3.38;;
55170;SDS011;41060;47.510;8.680;2024-03-02T09:21:04;8.60;;;3.38;;
55170;SDS011;41060;47.510;8.680;2024-03-02T09:23:32;8.20;;;3.47;;
55170;SDS011;41060;47.510;8.680;2024-03-02T09:25:59;7.13;;;4.05;;
55170;SDS011;41060;47.510;8.680;2024-03-02T09:28:26;4.60;;;3.13;;
55170;SDS011;41060;47.510;8.680;2024-03-02T09:30:54;6.10;;;3.30;;
55170;SDS011;41060;47.510;8.680;2024-03-02T09:33:21;4.65;;;2.85;;
55170;SDS011;41060;47.510;8.680;2024-03-02T09:35:48;6.90;;;3.95;;
55170;SDS011;41060;47.510;8.680;2024-03-02T09:38:16;8.90;;;2.63;;
55170;SDS011;41060;47.510;8.680;2024-03-02T09:40:43;5.05;;;3.40;;
55170;SDS011;41060;47.510;8.680;2024-03-02T09:43:10;7.32;;;3.30;;
55170;SDS011;41060;47.510;8.680;2024-03-02T09:45:37;7.85;;;3.80;;
55170;SDS011;41060;47.510;8.680;2024-03-02T09:48:05;6.25;;;2.78;;
55170;SDS011;41060;47.510;8.680;2024-03-02T09:50:32;5.57;;;2.90;;
55170;SDS011;41060;47.510;8.680;2024-03-02T09:52:59;7.93;;;3.53;;
55170;SDS011;41060;47.510;8.680;2024-03-02T09:55:28;7.28;;;3.63;;
55170;SDS011;41060;47.510;8.680;2024-03-02T09:57:55;8.18;;;3.83;;
55170;SDS011;41060;47.510;8.680;2024-03-02T10:00:22;7.93;;;4.43;;
55170;SDS011;41060;47.510;8.680;2024-03-02T10:02:50;8.63;;;4.88;;
55170;SDS011;41060;47.510;8.680;2024-03-02T10:05:23;10.80;;;4.47;;
55170;SDS011;41060;47.510;8.680;2024-03-02T10:07:58;8.60;;;4.38;;
55170;SDS011;41060;47.510;8.680;2024-03-02T10:10:26;8.80;;;3.92;;
55170;SDS011;41060;47.510;8.680;2024-03-02T10:13:05;9.70;;;4.50;;
55170;SDS011;41060;47.510;8.680;2024-03-02T10:15:34;8.00;;;3.78;;
55170;SDS011;41060;47.510;8.680;2024-03-02T10:18:01;7.57;;;3.75;;
55170;SDS011;41060;47.510;8.680;2024-03-02T10:20:28;9.95;;;4.50;;
55170;SDS011;41060;47.510;8.680;2024-03-02T10:22:55;8.57;;;4.28;;
55170;SDS011;41060;47.510;8.680;2024-03-02T10:25:29;8.90;;;5.05;;
55170;SDS011;41060;47.510;8.680;2024-03-02T10:27:59;7.15;;;4.28;;
55170;SDS011;41060;47.510;8.680;2024-03-02T10:30:26;8.18;;;4.15;;
55170;SDS011;41060;47.510;8.680;2024-03-02T10:32:54;9.77;;;4.25;;
55170;SDS011;41060;47.510;8.680;2024-03-02T10:35:22;10.60;;;4.95;;
55170;SDS011;41060;47.510;8.680;2024-03-02T10:37:50;10.93;;;4.70;;
55170;SDS011;41060;47.510;8.680;2024-03-02T10:40:21;9.18;;;4.80;;
55170;SDS011;41060;47.510;8.680;2024-03-02T10:42:49;9.05;;;4.20;;
55170;SDS011;41060;47.510;8.680;2024-03-02T10:45:19;11.00;;;5.43;;
55170;SDS011;41060;47.510;8.680;2024-03-02T10:47:47;6.75;;;4.13;;
55170;SDS011;41060;47.510;8.680;2024-03-02T10:50:15;7.60;;;4.40;;
55170;SDS011;41060;47.510;8.680;2024-03-02T10:52:44;8.85;;;4.90;;
55170;SDS011;41060;47.510;8.680;2024-03-02T10:55:11;9.52;;;5.15;;
55170;SDS011;41060;47.510;8.680;2024-03-02T10:57:41;6.53;;;4.10;;
55170;SDS011;41060;47.510;8.680;2024-03-02T11:00:11;6.32;;;3.60;;
55170;SDS011;41060;47.510;8.680;2024-03-02T11:02:46;7.85;;;3.85;;
55170;SDS011;41060;47.510;8.680;2024-03-02T11:05:18;6.15;;;3.60;;
55170;SDS011;41060;47.510;8.680;2024-03-02T11:07:51;8.15;;;3.65;;
55170;SDS011;41060;47.510;8.680;2024-03-02T11:10:22;9.90;;;4.35;;
55170;SDS011;41060;47.510;8.680;2024-03-02T11:12:53;9.15;;;3.38;;
55170;SDS011;41060;47.510;8.680;2024-03-02T11:15:25;6.80;;;3.10;;
55170;SDS011;41060;47.510;8.680;2024-03-02T11:17:55;6.47;;;4.57;;
55170;SDS011;41060;47.510;8.680;2024-03-02T11:20:26;10.82;;;4.40;;
55170;SDS011;41060;47.510;8.680;2024-03-02T11:22:55;7.18;;;3.45;;
55170;SDS011;41060;47.510;8.680;2024-03-02T11:25:24;6.57;;;3.63;;
55170;SDS011;41060;47.510;8.680;2024-03-02T11:28:04;7.15;;;4.50;;
55170;SDS011;41060;47.510;8.680;2024-03-02T11:30:50;8.70;;;4.43;;
55170;SDS011;41060;47.510;8.680;2024-03-02T11:33:25;6.57;;;3.55;;
55170;SDS011;41060;47.510;8.680;2024-03-02T11:35:56;8.18;;;3.80;;
55170;SDS011;41060;47.510;8.680;2024-03-02T11:38:24;11.13;;;4.28;;
55170;SDS011;41060;47.510;8.680;2024-03-02T11:40:55;7.05;;;4.15;;
55170;SDS011;41060;47.510;8.680;2024-03-02T11:43:22;6.25;;;3.90;;
55170;SDS011;41060;47.510;8.680;2024-03-02T11:45:52;10.25;;;4.93;;
55170;SDS011;41060;47.510;8.680;2024-03-02T11:48:24;8.75;;;4.05;;
55170;SDS011;41060;47.510;8.680;2024-03-02T11:50:52;8.48;;;4.63;;
55170;SDS011;41060;47.510;8.680;2024-03-02T11:53:19;9.45;;;4.82;;
55170;SDS011;41060;47.510;8.680;2024-03-02T11:55:47;7.15;;;3.70;;
55170;SDS011;41060;47.510;8.680;2024-03-02T11:58:15;8.60;;;4.38;;
55170;SDS011;41060;47.510;8.680;2024-03-02T12:00:42;6.70;;;4.22;;
55170;SDS011;41060;47.510;8.680;2024-03-02T12:03:12;8.90;;;4.15;;
55170;SDS011;41060;47.510;8.680;2024-03-02T12:05:41;7.63;;;3.65;;
55170;SDS011;41060;47.510;8.680;2024-03-02T12:08:08;10.20;;;4.93;;
55170;SDS011;41060;47.510;8.680;2024-03-02T12:10:36;7.68;;;4.68;;
55170;SDS011;41060;47.510;8.680;2024-03-02T12:13:04;12.82;;;4.65;;
55170;SDS011;41060;47.510;8.680;2024-03-02T12:15:34;5.50;;;3.80;;
55170;SDS011;41060;47.510;8.680;2024-03-02T12:18:03;6.75;;;3.92;;
55170;SDS011;41060;47.510;8.680;2024-03-02T12:20:31;7.00;;;4.15;;
55170;SDS011;41060;47.510;8.680;2024-03-02T12:23:00;8.55;;;3.88;;
55170;SDS011;41060;47.510;8.680;2024-03-02T12:25:29;7.65;;;4.15;;
55170;SDS011;41060;47.510;8.680;2024-03-02T12:27:58;7.05;;;3.72;;
55170;SDS011;41060;47.510;8.680;2024-03-02T12:30:26;6.05;;;3.40;;
55170;SDS011;41060;47.510;8.680;2024-03-02T12:32:56;7.65;;;3.55;;
55170;SDS011;41060;47.510;8.680;2024-03-02T12:35:23;5.45;;;3.28;;
55170;SDS011;41060;47.510;8.680;2024-03-02T12:37:51;4.93;;;2.38;;
55170;SDS011;41060;47.510;8.680;2024-03-02T12:40:21;4.30;;;2.70;;
55170;SDS011;41060;47.510;8.680;2024-03-02T12:42:48;4.45;;;2.50;;
55170;SDS011;41060;47.510;8.680;2024-03-02T12:45:15;4.40;;;2.45;;
55170;SDS011;41060;47.510;8.680;2024-03-02T12:47:49;4.65;;;2.45;;
55170;SDS011;41060;47.510;8.680;2024-03-02T12:50:17;5.55;;;2.55;;
55170;SDS011;41060;47.510;8.680;2024-03-02T12:52:50;4.15;;;2.55;;
55170;SDS011;41060;47.510;8.680;2024-03-02T12:55:18;3.92;;;2.20;;
55170;SDS011;41060;47.510;8.680;2024-03-02T12:57:49;4.00;;;2.38;;
55170;SDS011;41060;47.510;8.680;2024-03-02T13:00:17;4.22;;;2.25;;
55170;SDS011;41060;47.510;8.680;2024-03-02T13:02:45;4.40;;;2.50;;
55170;SDS011;41060;47.510;8.680;2024-03-02T13:05:15;4.25;;;2.55;;
55170;SDS011;41060;47.510;8.680;2024-03-02T13:07:42;6.20;;;2.72;;
55170;SDS011;41060;47.510;8.680;2024-03-02T13:10:11;3.83;;;2.35;;
55170;SDS011;41060;47.510;8.680;2024-03-02T13:12:41;4.82;;;2.08;;
55170;SDS011;41060;47.510;8.680;2024-03-02T13:15:08;4.25;;;2.30;;
55170;SDS011;41060;47.510;8.680;2024-03-02T13:17:36;4.75;;;2.60;;
55170;SDS011;41060;47.510;8.680;2024-03-02T13:20:03;3.42;;;2.42;;
55170;SDS011;41060;47.510;8.680;2024-03-02T13:22:33;4.63;;;2.33;;
55170;SDS011;41060;47.510;8.680;2024-03-02T13:25:00;4.55;;;2.08;;
55170;SDS011;41060;47.510;8.680;2024-03-02T13:27:28;5.65;;;2.50;;
55170;SDS011;41060;47.510;8.680;2024-03-02T13:29:57;4.68;;;2.47;;
55170;SDS011;41060;47.510;8.680;2024-03-02T13:32:24;4.57;;;2.25;;
55170;SDS011;41060;47.510;8.680;2024-03-02T13:34:51;2.72;;;1.77;;
55170;SDS011;41060;47.510;8.680;2024-03-02T13:37:17;2.15;;;1.30;;
55170;SDS011;41060;47.510;8.680;2024-03-02T13:39:45;5.28;;;1.83;;
55170;SDS011;41060;47.510;8.680;2024-03-02T13:42:12;2.20;;;1.60;;
55170;SDS011;41060;47.510;8.680;2024-03-02T13:44:40;4.82;;;1.77;;
55170;SDS011;41060;47.510;8.680;2024-03-02T13:47:12;3.15;;;1.52;;
55170;SDS011;41060;47.510;8.680;2024-03-02T13:49:39;2.83;;;1.58;;
55170;SDS011;41060;47.510;8.680;2024-03-02T13:52:09;2.45;;;1.60;;
55170;SDS011;41060;47.510;8.680;2024-03-02T13:54:37;3.75;;;1.60;;
55170;SDS011;41060;47.510;8.680;2024-03-02T13:57:04;2.25;;;1.40;;
55170;SDS011;41060;47.510;8.680;2024-03-02T13:59:31;2.97;;;1.55;;
55170;SDS011;41060;47.510;8.680;2024-03-02T14:01:58;2.58;;;1.20;;
55170;SDS011;41060;47.510;8.680;2024-03-02T14:04:26;2.38;;;1.30;;
55170;SDS011;41060;47.510;8.680;2024-03-02T14:06:55;3.42;;;1.55;;
55170;SDS011;41060;47.510;8.680;2024-03-02T14:09:24;2.85;;;1.20;;
55170;SDS011;41060;47.510;8.680;2024-03-02T14:11:52;3.03;;;1.30;;
55170;SDS011;41060;47.510;8.680;2024-03-02T14:14:18;2.67;;;1.35;;
55170;SDS011;41060;47.510;8.680;2024-03-02T14:16:46;2.17;;;1.35;;
55170;SDS011;41060;47.510;8.680;2024-03-02T14:19:16;1.35;;;1.00;;
55170;SDS011;41060;47.510;8.680;2024-03-02T14:21:44;1.77;;;0.88;;
55170;SDS011;41060;47.510;8.680;2024-03-02T14:24:11;2.15;;;0.90;;
55170;SDS011;41060;47.510;8.680;2024-03-02T14:26:38;2.42;;;0.90;;
55170;SDS011;41060;47.510;8.680;2024-03-02T14:29:05;2.17;;;1.00;;
55170;SDS011;41060;47.510;8.680;2024-03-02T14:31:33;2.72;;;1.30;;
55170;SDS011;41060;47.510;8.680;2024-03-02T14:34:03;2.63;;;0.90;;
55170;SDS011;41060;47.510;8.680;2024-03-02T14:36:30;2.33;;;0.95;;
55170;SDS011;41060;47.510;8.680;2024-03-02T14:38:58;2.15;;;1.05;;
55170;SDS011;41060;47.510;8.680;2024-03-02T14:41:25;2.72;;;1.20;;
55170;SDS011;41060;47.510;8.680;2024-03-02T14:43:50;2.75;;;1.10;;
55170;SDS011;41060;47.510;8.680;2024-03-02T14:46:18;2.10;;;1.05;;
55170;SDS011;41060;47.510;8.680;2024-03-02T14:48:45;2.00;;;1.08;;
55170;SDS011;41060;47.510;8.680;2024-03-02T14:51:12;1.20;;;0.77;;
55170;SDS011;41060;47.510;8.680;2024-03-02T14:53:40;1.52;;;1.00;;
55170;SDS011;41060;47.510;8.680;2024-03-02T14:56:08;1.95;;;1.10;;
55170;SDS011;41060;47.510;8.680;2024-03-02T14:58:34;1.83;;;1.17;;
55170;SDS011;41060;47.510;8.680;2024-03-02T15:01:03;1.73;;;0.95;;
55170;SDS011;41060;47.510;8.680;2024-03-02T15:03:30;2.08;;;1.23;;
55170;SDS011;41060;47.510;8.680;2024-03-02T15:05:56;1.52;;;0.90;;
55170;SDS011;41060;47.510;8.680;2024-03-02T15:08:24;1.92;;;1.10;;
55170;SDS011;41060;47.510;8.680;2024-03-02T15:10:51;2.70;;;0.90;;
55170;SDS011;41060;47.510;8.680;2024-03-02T15:13:21;2.00;;;1.25;;
55170;SDS011;41060;47.510;8.680;2024-03-02T15:15:49;2.50;;;1.25;;
55170;SDS011;41060;47.510;8.680;2024-03-02T15:18:15;1.88;;;1.00;;
55170;SDS011;41060;47.510;8.680;2024-03-02T15:20:42;2.70;;;1.55;;
55170;SDS011;41060;47.510;8.680;2024-03-02T15:23:09;3.72;;;1.60;;
55170;SDS011;41060;47.510;8.680;2024-03-02T15:25:36;2.33;;;1.08;;
55170;SDS011;41060;47.510;8.680;2024-03-02T15:28:03;1.50;;;0.95;;
55170;SDS011;41060;47.510;8.680;2024-03-02T15:30:32;2.78;;;0.95;;
55170;SDS011;41060;47.510;8.680;2024-03-02T15:32:58;2.58;;;1.00;;
55170;SDS011;41060;47.510;8.680;2024-03-02T15:35:25;2.25;;;1.10;;